Time;durP1;ratioP1;P1;durP2;ratioP2;P2;SDS_P1;SDS_P2;PMS_P1;PMS_P2;Temp;Humidity;BMP_temperature;BMP_pressure;BME280_temperature;BME280_humidity;BME280_pressure;Samples;Min_cycle;Max_cycle;Signal;HPM_P1;HPM_P2
2023/09/08 00:06:06;;;;;;;3.00;1.60;;;;;;;;;;20945497;28;20262;-71
2023/09/08 00:16:09;;;;;;;2.63;1.67;;;;;;;;;;20923488;28;20584;-71
2023/09/08 00:26:12;;;;;;;2.20;1.35;;;;;;;;;;20936523;28;20229;-71
2023/09/08 00:36:15;;;;;;;2.38;1.50;;;;;;;;;;20946577;28;20524;-71
2023/09/08 00:46:17;;;;;;;4.30;1.55;;;22.80;99.90;;;;;;20922698;28;20206;-72
2023/09/08 00:56:19;;;;;;;2.25;1.30;;;;;;;;;;20889945;28;20275;-72
2023/09/08 01:06:22;;;;;;;2.70;1.35;;;22.40;99.90;;;;;;20941460;28;20210;-71
2023/09/08 01:16:24;;;;;;;2.00;1.63;;;;;;;;;;20925443;28;20284;-72
2023/09/08 01:26:31;;;;;;;2.35;1.52;;;;;;;;;;20973406;28;20213;-72
2023/09/08 01:36:35;;;;;;;4.05;1.45;;;;;;;;;;20955923;28;20229;-72
2023/09/08 01:46:36;;;;;;;4.07;1.77;;;;;;;;;;20955076;28;20275;-72
2023/09/08 01:56:38;;;;;;;1.75;1.20;;;;;;;;;;20888429;28;20249;-72
2023/09/08 02:06:40;;;;;;;3.00;1.17;;;;;;;;;;20910198;28;20209;-72
2023/09/08 02:16:42;;;;;;;2.10;1.33;;;;;;;;;;20887343;28;20219;-72
2023/09/08 02:26:44;;;;;;;1.95;1.25;;;21.80;99.90;;;;;;20896205;28;20559;-72
2023/09/08 02:36:47;;;;;;;1.80;1.15;;;;;;;;;;20869202;28;20233;-72
2023/09/08 02:46:52;;;;;;;1.77;1.25;;;;;;;;;;20916098;28;20229;-72
2023/09/08 02:56:54;;;;;;;1.58;1.20;;;;;;;;;;20886200;28;20222;-72
2023/09/08 03:06:56;;;;;;;2.38;1.20;;;;;;;;;;20967338;28;20239;-72
2023/09/08 03:16:59;;;;;;;2.00;1.40;;;;;;;;;;20969554;28;20291;-72
2023/09/08 03:27:01;;;;;;;1.70;1.10;;;;;;;;;;20955825;28;20284;-72
2023/09/08 03:37:04;;;;;;;3.60;1.65;;;;;;;;;;20883339;28;20279;-72
2023/09/08 03:47:06;;;;;;;3.72;1.70;;;;;;;;;;20929862;28;20218;-71
2023/09/08 03:57:08;;;;;;;1.88;1.38;;;;;;;;;;20901845;28;20299;-71
2023/09/08 04:07:10;;;;;;;2.10;1.37;;;;;;;;;;20956949;28;20213;-71
2023/09/08 04:17:12;;;;;;;2.00;1.40;;;;;;;;;;20962957;28;20228;-71
2023/09/08 04:27:14;;;;;;;1.80;1.40;;;;;;;;;;20960966;28;20270;-71
2023/09/08 04:37:16;;;;;;;4.30;1.47;;;;;;;;;;20931159;28;20590;-71
2023/09/08 04:47:18;;;;;;;2.87;1.80;;;;;;;;;;20926660;28;20274;-72
2023/09/08 04:57:22;;;;;;;3.67;2.13;;;;;;;;;;20916223;28;20290;-71
2023/09/08 05:07:25;;;;;;;2.30;1.40;;;;;;;;;;20976206;28;20774;-71
2023/09/08 05:17:28;;;;;;;3.00;1.90;;;;;;;;;;20958401;28;20601;-72
2023/09/08 05:27:31;;;;;;;2.50;1.70;;;;;;;;;;20973761;28;20274;-72
2023/09/08 05:37:33;;;;;;;6.07;1.53;;;;;;;;;;20956998;28;20232;-72
2023/09/08 05:47:36;;;;;;;8.00;2.23;;;;;;;;;;20964656;28;20237;-72
2023/09/08 05:57:38;;;;;;;5.70;2.03;;;;;;;;;;20937390;22;20216;-75
2023/09/08 06:07:41;;;;;;;6.87;2.30;;;;;;;;;;20962246;28;20334;-74
2023/09/08 06:17:44;;;;;;;3.53;2.50;;;;;;;;;;20924609;28;20232;-75
2023/09/08 06:27:46;;;;;;;3.13;2.17;;;;;;;;;;20881386;28;20258;-76
2023/09/08 06:37:48;;;;;;;6.10;2.30;;;;;;;;;;20932020;28;20578;-73
2023/09/08 06:47:54;;;;;;;3.53;2.20;;;;;;;;;;20911778;28;20220;-73
2023/09/08 06:57:57;;;;;;;4.70;2.23;;;21.40;99.90;;;;;;20910083;28;20384;-73
2023/09/08 07:07:59;;;;;;;3.47;2.20;;;;;;;;;;20965550;28;20227;-74
2023/09/08 07:18:00;;;;;;;3.87;2.33;;;;;;;;;;20953862;28;20233;-73
2023/09/08 07:28:03;;;;;;;3.67;2.10;;;;;;;;;;20878318;28;20357;-74
2023/09/08 07:38:05;;;;;;;4.13;1.97;;;;;;;;;;20907074;28;20224;-74
2023/09/08 07:48:07;;;;;;;4.88;2.17;;;;;;;;;;20925693;28;20220;-73
2023/09/08 07:58:09;;;;;;;3.05;2.25;;;;;;;;;;20937312;28;20289;-72
2023/09/08 08:08:10;;;;;;;3.30;2.20;;;;;;;;;;20942523;28;20197;-75
2023/09/08 08:18:12;;;;;;;5.30;1.88;;;;;;;;;;20959420;28;20756;-77
2023/09/08 08:28:14;;;;;;;3.97;2.13;;;;;;;;;;20973558;28;20278;-76
2023/09/08 08:38:16;;;;;;;4.60;2.35;;;;;;;;;;20934747;28;20277;-74
2023/09/08 08:48:18;;;;;;;3.17;2.33;;;;;;;;;;20946759;28;20214;-75
2023/09/08 08:58:24;;;;;;;4.13;2.30;;;;;;;;;;20936011;28;20222;-76
2023/09/08 09:08:27;;;;;;;4.53;2.35;;;23.90;99.90;;;;;;20973100;28;20215;-76
2023/09/08 09:18:32;;;;;;;2.83;1.95;;;24.20;99.90;;;;;;20945981;28;20223;-76
2023/09/08 09:28:34;;;;;;;2.70;1.75;;;;;;;;;;20931681;28;20263;-75
2023/09/08 09:38:36;;;;;;;4.07;2.10;;;;;;;;;;20919882;28;20245;-75
2023/09/08 09:48:37;;;;;;;4.28;2.42;;;;;;;;;;20924058;28;20222;-76
2023/09/08 09:58:40;;;;;;;2.63;1.73;;;25.20;99.90;;;;;;20921077;28;20269;-78
2023/09/08 10:08:43;;;;;;;1.85;1.38;;;25.40;99.90;;;;;;20907872;28;20223;-76
2023/09/08 10:18:47;;;;;;;2.65;1.90;;;25.60;99.90;;;;;;20915606;28;20235;-76
2023/09/08 10:28:51;;;;;;;2.42;1.60;;;;;;;;;;20959589;28;20226;-76
2023/09/08 10:38:54;;;;;;;3.47;1.98;;;;;;;;;;20934697;28;20258;-79
2023/09/08 10:49:03;;;;;;;2.95;1.83;;;;;;;;;;20958770;28;20704;-76
2023/09/08 10:59:06;;;;;;;1.98;1.38;;;;;;;;;;20959975;28;20790;-76
2023/09/08 11:09:08;;;;;;;2.00;1.50;;;26.60;99.90;;;;;;20905844;28;20220;-79
2023/09/08 11:19:10;;;;;;;3.72;1.55;;;;;;;;;;20910806;28;20767;-80
2023/09/08 11:29:12;;;;;;;3.53;1.90;;;;;;;;;;20899552;28;20215;-76
2023/09/08 11:39:15;;;;;;;2.40;1.40;;;27.30;99.90;;;;;;20951701;28;20276;-76
2023/09/08 11:49:20;;;;;;;2.72;1.40;;;27.60;99.90;;;;;;21001662;28;20681;-77
2023/09/08 11:59:22;;;;;;;2.22;1.40;;;;;;;;;;21008264;22;20229;-74
2023/09/08 12:09:23;;;;;;;1.90;1.30;;;28.00;99.90;;;;;;20935640;28;20246;-74
2023/09/08 12:19:31;;;;;;;2.38;1.50;;;;;;;;;;20911982;28;20587;-74
2023/09/08 12:29:33;;;;;;;2.00;1.42;;;;;;;;;;20913257;28;20278;-74
2023/09/08 12:39:36;;;;;;;3.08;1.35;;;;;;;;;;20877299;28;20367;-74
2023/09/08 12:49:37;;;;;;;2.03;1.40;;;;;;;;;;20945277;28;20215;-74
2023/09/08 12:59:39;;;;;;;2.17;1.42;;;;;;;;;;20909767;28;20221;-74
2023/09/08 13:09:41;;;;;;;2.75;1.98;;;;;;;;;;20908201;28;20254;-74
2023/09/08 13:19:45;;;;;;;2.05;1.27;;;;;;;;;;20889847;28;20558;-74
2023/09/08 13:29:47;;;;;;;2.20;1.58;;;;;;;;;;20907374;28;20225;-74
2023/09/08 13:39:48;;;;;;;2.67;1.40;;;;;;;;;;20906496;28;20280;-74
2023/09/08 13:49:50;;;;;;;2.10;1.38;;;;;;;;;;20924436;28;20209;-74
2023/09/08 13:59:54;;;;;;;2.60;1.20;;;;;;;;;;20885698;28;20229;-75
2023/09/08 14:09:55;;;;;;;2.75;1.60;;;;;;;;;;20905715;28;20271;-74
2023/09/08 14:19:57;;;;;;;3.08;1.50;;;;;;;;;;20868487;28;20282;-74
2023/09/08 14:29:59;;;;;;;1.60;1.10;;;;;;;;;;20903167;28;20220;-74
2023/09/08 14:40:00;;;;;;;1.90;1.30;;;;;;;;;;20902175;28;20236;-74
2023/09/08 14:50:03;;;;;;;1.67;1.13;;;;;;;;;;20961978;28;20580;-73
2023/09/08 15:00:05;;;;;;;2.90;1.60;;;29.30;99.90;;;;;;20915918;28;20240;-74
2023/09/08 15:10:07;;;;;;;2.65;1.20;;;;;;;;;;20901242;28;20214;-74
2023/09/08 15:20:09;;;;;;;2.55;1.48;;;;;;;;;;20905865;28;20268;-73
2023/09/08 15:30:13;;;;;;;2.60;1.38;;;29.90;99.90;;;;;;20927842;28;20225;-73
2023/09/08 15:40:16;;;;;;;3.70;1.50;;;;;;;;;;20927234;28;20271;-76
2023/09/08 15:50:17;;;;;;;2.20;1.45;;;;;;;;;;20945100;28;20649;-75
2023/09/08 16:00:20;;;;;;;2.65;1.23;;;;;;;;;;20943959;28;20220;-75
2023/09/08 16:10:22;;;;;;;1.67;1.10;;;;;;;;;;20909146;28;20225;-76
2023/09/08 16:20:24;;;;;;;1.83;1.17;;;;;;;;;;20890505;28;20240;-76
2023/09/08 16:30:25;;;;;;;1.90;1.40;;;;;;;;;;20966439;28;20242;-72
2023/09/08 16:40:27;;;;;;;1.90;1.33;;;;;;;;;;20938178;28;20217;-73
2023/09/08 16:50:29;;;;;;;1.80;1.13;;;;;;;;;;20946317;28;20212;-73
2023/09/08 17:00:31;;;;;;;2.00;1.50;;;;;;;;;;20934796;28;20220;-73
2023/09/08 17:10:35;;;;;;;5.35;1.42;;;;;;;;;;20948374;28;20217;-72
2023/09/08 17:20:37;;;;;;;5.63;1.40;;;;;;;;;;20942938;28;20275;-72
2023/09/08 17:30:38;;;;;;;1.67;1.13;;;;;;;;;;20904635;28;20704;-71
2023/09/08 17:40:41;;;;;;;1.67;1.40;;;;;;;;;;20978033;28;20316;-72
2023/09/08 17:50:42;;;;;;;2.92;1.50;;;;;;;;;;20970509;28;20215;-72
2023/09/08 18:00:46;;;;;;;2.78;1.52;;;;;;;;;;20972598;23;20223;-73
2023/09/08 18:10:47;;;;;;;2.80;1.80;;;;;;;;;;20950503;28;20220;-74
2023/09/08 18:20:49;;;;;;;6.00;2.10;;;;;;;;;;20863039;28;20699;-74
2023/09/08 18:30:52;;;;;;;4.75;1.70;;;;;;;;;;20898565;28;20215;-74
2023/09/08 18:40:54;;;;;;;3.05;1.55;;;;;;;;;;20939793;28;20212;-74
2023/09/08 18:50:55;;;;;;;2.72;1.42;;;;;;;;;;20940168;28;20621;-74
2023/09/08 19:01:03;;;;;;;3.65;1.50;;;;;;;;;;20930152;28;20710;-73
2023/09/08 19:11:05;;;;;;;2.25;1.60;;;;;;;;;;20918522;28;20278;-73
2023/09/08 19:21:07;;;;;;;3.30;1.90;;;;;;;;;;20867469;28;20640;-73
2023/09/08 19:31:09;;;;;;;2.38;1.48;;;;;;;;;;20856385;28;20220;-73
2023/09/08 19:41:11;;;;;;;3.35;1.65;;;;;;;;;;20850613;28;20224;-73
2023/09/08 19:51:14;;;;;;;4.22;1.88;;;;;;;;;;20931863;28;20220;-73
2023/09/08 20:01:16;;;;;;;2.45;1.73;;;;;;;;;;20911898;28;20227;-73
2023/09/08 20:11:18;;;;;;;2.25;1.65;;;;;;;;;;20954496;28;20275;-73
2023/09/08 20:21:20;;;;;;;2.20;1.63;;;;;;;;;;20942357;28;20232;-73
2023/09/08 20:31:22;;;;;;;2.95;1.60;;;;;;;;;;20878529;28;20273;-73
2023/09/08 20:41:25;;;;;;;2.75;1.83;;;25.30;99.90;;;;;;20861924;28;20614;-73
2023/09/08 20:51:27;;;;;;;2.45;1.50;;;;;;;;;;20917875;28;20240;-73
2023/09/08 21:01:29;;;;;;;2.45;1.73;;;;;;;;;;20926583;28;20228;-73
2023/09/08 21:11:31;;;;;;;4.00;1.52;;;;;;;;;;20859500;28;20657;-73
2023/09/08 21:21:33;;;;;;;2.78;1.67;;;;;;;;;;20859308;28;20235;-73
2023/09/08 21:31:35;;;;;;;3.58;1.88;;;;;;;;;;20858539;28;20607;-73
2023/09/08 21:41:37;;;;;;;2.40;1.45;;;;;;;;;;20919861;28;20772;-73
2023/09/08 21:51:39;;;;;;;2.28;1.58;;;;;;;;;;20878853;28;20220;-73
2023/09/08 22:01:41;;;;;;;2.95;1.83;;;;;;;;;;20912926;28;20231;-73
2023/09/08 22:11:43;;;;;;;3.10;1.70;;;;;;;;;;20970732;28;20277;-73
2023/09/08 22:21:45;;;;;;;4.28;1.65;;;;;;;;;;20952273;28;20703;-73
2023/09/08 22:31:48;;;;;;;3.83;1.85;;;;;;;;;;20969077;28;20250;-73
2023/09/08 22:41:50;;;;;;;3.45;2.00;;;;;;;;;;20935021;28;20532;-73
2023/09/08 22:51:53;;;;;;;3.33;2.17;;;;;;;;;;20904841;28;20241;-73
2023/09/08 23:01:55;;;;;;;3.10;2.13;;;;;;;;;;20928107;28;20234;-73
2023/09/08 23:11:57;;;;;;;2.90;2.20;;;;;;;;;;20967694;28;20269;-73
2023/09/08 23:22:00;;;;;;;3.92;2.05;;;;;;;;;;20950497;28;20271;-73
2023/09/08 23:32:01;;;;;;;3.97;2.55;;;;;;;;;;20933748;28;20214;-74
2023/09/08 23:42:03;;;;;;;2.45;2.08;;;;;;;;;;20949623;28;20234;-74
2023/09/08 23:52:05;;;;;;;3.60;2.30;;;;;;;;;;20932995;28;20227;-74
